This is the latest recevied weather packets stored in our database for station/object K9RCP-20. If no packets are shown the sender has not sent any weather packets the latest 10 day(s).
| Time | Temp. | Humidity | Pressure | Rain* | Wind** | Luminosity | Snow |
|---|---|---|---|---|---|---|---|
| 1778102977 | 20.56° C | 64% | 1017.7 hPa | 0 mm | - | 747 W/m² | - |
| 1778102672 | 21.67° C | 62% | 1017.6 hPa | 0 mm | - | 830 W/m² | - |
| 1778102372 | 20.56° C | 63% | 1017.7 hPa | 0 mm | - | 374 W/m² | - |
| 1778102069 | 20° C | 64% | 1017.9 hPa | 0 mm | - | 427 W/m² | - |
| 1778101766 | 20.56° C | 63% | 1018.1 hPa | 0 mm | - | 305 W/m² | - |
| 1778101463 | 20.56° C | 63% | 1017.9 hPa | 0 mm | - | 320 W/m² | - |
| 1778101160 | 21.11° C | 64% | 1018 hPa | 0 mm | - | 368 W/m² | - |
| 1778100856 | 20.56° C | 64% | 1018 hPa | 0 mm | - | 879 W/m² | - |
| 1778100552 | 20° C | 67% | 1018.1 hPa | 0 mm | - | 845 W/m² | - |
| 1778100250 | 21.11° C | 67% | 1017.8 hPa | 0 mm | - | 836 W/m² | - |
| 1778099947 | 20° C | 68% | 1017.9 hPa | 0 mm | - | 824 W/m² | - |
| 1778099644 | 19.44° C | 72% | 1017.9 hPa | 0 mm | - | 343 W/m² | - |
| 1778099341 | 19.44° C | 71% | 1017.9 hPa | 0 mm | - | 280 W/m² | - |
| 1778099038 | 19.44° C | 71% | 1018 hPa | 0 mm | - | 315 W/m² | - |
| 1778098735 | 19.44° C | 69% | 1018 hPa | 0 mm | - | 803 W/m² | - |
| 1778098432 | 19.44° C | 69% | 1017.9 hPa | 0 mm | - | 803 W/m² | - |
| 1778096612 | 18.33° C | 71% | 1018.3 hPa | 0 mm | - | 272 W/m² | - |
| 1778096310 | 18.33° C | 71% | 1018.7 hPa | 0 mm | - | 272 W/m² | - |
| 1778096006 | 18.33° C | 73% | 1018.5 hPa | 0 mm | - | 292 W/m² | - |
| 1778095702 | 17.78° C | 73% | 1018.3 hPa | 0 mm | - | 270 W/m² | - |
| 1778095400 | 17.78° C | 74% | 1018.4 hPa | 0 mm | - | 296 W/m² | - |
| 1778095097 | 17.78° C | 75% | 1018.3 hPa | 0 mm | - | 369 W/m² | - |
| 1778094793 | 17.78° C | 75% | 1018.5 hPa | 0 mm | - | 358 W/m² | - |
| 1778094490 | 18.33° C | 71% | 1018.3 hPa | 0 mm | - | 447 W/m² | - |
| 1778094186 | 17.22° C | 74% | 1018.4 hPa | 0 mm | - | 566 W/m² | - |
* Rain latest hour (hover to see other rain measurements)
** Current wind speed in m/s (hover to see current wind gust speed)